createdAt,value
2019-01-02T00:00:09.226Z,75.22
2019-01-02T00:01:09.192Z,75.12
2019-01-02T00:02:09.178Z,75.12
2019-01-02T00:03:09.166Z,74.91
2019-01-02T00:04:09.159Z,75.01
2019-01-02T00:05:09.185Z,75.01
2019-01-02T00:06:09.136Z,74.80
2019-01-02T00:07:09.125Z,75.64
2019-01-02T00:08:09.115Z,75.85
2019-01-02T00:09:09.105Z,75.43
2019-01-02T00:10:09.093Z,74.91
2019-01-02T00:11:09.105Z,75.54
2019-01-02T00:12:09.072Z,75.54
2019-01-02T00:13:09.070Z,75.54
2019-01-02T00:14:09.050Z,75.43
2019-01-02T00:15:09.042Z,75.64
2019-01-02T00:16:09.053Z,75.32
2019-01-02T00:17:09.018Z,75.43
2019-01-02T00:18:09.007Z,75.32
2019-01-02T00:19:08.996Z,75.43
2019-01-02T00:20:08.987Z,75.64
2019-01-02T00:21:09.004Z,75.26
2019-01-02T00:22:08.967Z,75.67
2019-01-02T00:23:08.959Z,75.64
2019-01-02T00:24:08.943Z,75.85
2019-01-02T00:25:08.934Z,75.67
2019-01-02T00:26:08.956Z,75.57
2019-01-02T00:27:08.920Z,75.26
2019-01-02T00:28:08.903Z,75.74
2019-01-02T00:29:08.898Z,75.54
2019-01-02T00:30:08.881Z,75.74
2019-01-02T00:31:08.912Z,75.78
2019-01-02T00:32:08.867Z,75.78
2019-01-02T00:33:08.850Z,75.85
2019-01-02T00:34:08.838Z,75.78
2019-01-02T00:35:08.826Z,75.57
2019-01-02T00:36:08.815Z,75.78
2019-01-02T00:37:08.833Z,75.78
2019-01-02T00:38:08.794Z,75.22
2019-01-02T00:39:09.179Z,75.36
2019-01-02T00:40:08.773Z,75.67
2019-01-02T00:41:08.763Z,75.74
2019-01-02T00:42:08.775Z,75.57
2019-01-02T00:43:08.741Z,75.74
2019-01-02T00:44:08.734Z,75.46
2019-01-02T00:45:08.719Z,75.46
2019-01-02T00:46:08.708Z,75.46
2019-01-02T00:47:08.723Z,75.46
2019-01-02T00:48:08.689Z,75.78
2019-01-02T00:49:08.675Z,75.67
2019-01-02T00:50:08.676Z,75.78
2019-01-02T00:51:08.657Z,75.57
2019-01-02T00:52:08.670Z,75.32
2019-01-02T00:53:08.635Z,75.57
2019-01-02T00:54:08.623Z,75.46
2019-01-02T00:55:08.613Z,75.78
2019-01-02T00:56:08.614Z,75.54
2019-01-02T00:57:08.629Z,75.26
2019-01-02T00:58:08.580Z,75.57
2019-01-02T00:59:08.573Z,75.46
2019-01-02T01:00:08.559Z,75.78
2019-01-02T01:01:08.547Z,75.64
2019-01-02T01:02:08.537Z,75.74
2019-01-02T01:03:08.553Z,75.57
2019-01-02T01:04:08.516Z,75.26
2019-01-02T01:05:08.506Z,75.22
2019-01-02T01:06:08.497Z,75.26
2019-01-02T01:07:08.484Z,75.36
2019-01-02T01:08:08.498Z,75.43
2019-01-02T01:09:08.462Z,75.15
2019-01-02T01:10:08.452Z,75.43
2019-01-02T01:11:08.441Z,75.26
2019-01-02T01:12:08.432Z,75.67
2019-01-02T01:13:08.456Z,75.22
2019-01-02T01:14:08.410Z,75.54
2019-01-02T01:15:08.399Z,75.36
2019-01-02T01:16:08.388Z,75.32
2019-01-02T01:17:08.381Z,75.22
2019-01-02T01:18:08.367Z,75.26
2019-01-02T01:19:08.383Z,75.36
2019-01-02T01:20:08.351Z,75.15
2019-01-02T01:21:08.335Z,75.36
2019-01-02T01:22:08.325Z,75.43
2019-01-02T01:23:08.313Z,75.36
2019-01-02T01:24:08.331Z,75.78
2019-01-02T01:25:08.303Z,75.26
2019-01-02T01:26:08.285Z,75.12
2019-01-02T01:27:08.271Z,75.01
2019-01-02T01:28:08.259Z,74.95
2019-01-02T01:29:08.275Z,75.57
2019-01-02T01:30:08.255Z,75.64
2019-01-02T01:31:08.229Z,74.84
2019-01-02T01:32:08.216Z,74.95
2019-01-02T01:33:08.206Z,75.05
2019-01-02T01:34:08.224Z,74.80
2019-01-02T01:35:08.185Z,74.84
2019-01-02T01:36:08.181Z,74.84
2019-01-02T01:37:08.164Z,74.74
2019-01-02T01:38:08.154Z,75.05
2019-01-02T01:39:08.195Z,74.95
2019-01-02T01:40:08.133Z,74.95
2019-01-02T01:41:08.121Z,74.91
2019-01-02T01:42:08.112Z,74.91
2019-01-02T01:43:08.100Z,74.84
2019-01-02T01:44:08.127Z,74.84
2019-01-02T01:45:08.079Z,74.84
2019-01-02T01:46:08.069Z,74.74
2019-01-02T01:47:08.059Z,75.05
2019-01-02T01:48:08.046Z,74.95
2019-01-02T01:49:08.036Z,74.95
2019-01-02T01:50:08.049Z,74.95
2019-01-02T01:51:08.014Z,75.78
2019-01-02T01:52:08.004Z,74.95
2019-01-02T01:53:07.995Z,74.74
2019-01-02T01:54:07.985Z,74.74
2019-01-02T01:55:08.001Z,74.84
2019-01-02T01:56:07.960Z,74.95
2019-01-02T01:57:07.953Z,74.84
2019-01-02T01:58:07.941Z,74.84
2019-01-02T01:59:07.930Z,74.95
2019-01-02T02:00:07.957Z,75.15
2019-01-02T02:01:07.909Z,74.95
2019-01-02T02:02:08.041Z,75.05
2019-01-02T02:03:07.888Z,75.05
2019-01-02T02:04:07.879Z,75.15
2019-01-02T02:05:07.870Z,75.26
2019-01-02T02:06:07.890Z,75.05
2019-01-02T02:07:07.845Z,74.74
2019-01-02T02:08:07.835Z,74.74
2019-01-02T02:09:07.823Z,74.63
2019-01-02T02:10:07.844Z,74.63
2019-01-02T02:11:07.803Z,74.84
2019-01-02T02:12:07.794Z,74.53
2019-01-02T02:13:07.781Z,74.74
2019-01-02T02:14:07.774Z,74.18
2019-01-02T02:15:07.784Z,74.32
2019-01-02T02:16:07.750Z,74.60
2019-01-02T02:17:07.740Z,74.74
2019-01-02T02:18:07.735Z,74.63
2019-01-02T02:19:07.717Z,74.11
2019-01-02T02:20:07.733Z,74.29
2019-01-02T02:21:07.695Z,74.22
2019-01-02T02:22:07.684Z,74.32
2019-01-02T02:23:07.675Z,74.60
2019-01-02T02:24:07.664Z,74.18
2019-01-02T02:25:07.653Z,74.18
2019-01-02T02:26:07.667Z,74.32
2019-01-02T02:27:07.633Z,74.32
2019-01-02T02:28:07.621Z,74.29
2019-01-02T02:29:07.613Z,74.11
2019-01-02T02:30:07.625Z,73.28
2019-01-02T02:31:07.593Z,73.80
2019-01-02T02:32:07.580Z,73.80
2019-01-02T02:33:07.567Z,73.60
2019-01-02T02:34:07.559Z,73.60
2019-01-02T02:35:07.583Z,73.49
2019-01-02T02:36:07.535Z,73.66
2019-01-02T02:37:07.529Z,73.49
2019-01-02T02:38:07.517Z,73.60
2019-01-02T02:39:07.503Z,73.60
2019-01-02T02:40:07.492Z,73.77
2019-01-02T02:41:07.508Z,73.56
2019-01-02T02:42:07.472Z,73.60
2019-01-02T02:43:07.466Z,73.56
2019-01-02T02:44:07.451Z,73.07
2019-01-02T02:45:07.438Z,73.18
2019-01-02T02:46:07.456Z,73.14
2019-01-02T02:47:07.420Z,73.39
2019-01-02T02:48:07.408Z,73.25
2019-01-02T02:49:07.398Z,73.07
2019-01-02T02:50:07.386Z,72.94
2019-01-02T02:51:07.403Z,73.49
2019-01-02T02:52:07.365Z,73.07
2019-01-02T02:53:07.356Z,72.73
2019-01-02T02:54:07.342Z,72.94
2019-01-02T02:55:07.331Z,73.04
2019-01-02T02:56:07.347Z,73.04
2019-01-02T02:57:07.313Z,72.94
2019-01-02T02:58:07.300Z,73.04
2019-01-02T02:59:07.292Z,72.73
2019-01-02T03:00:07.280Z,72.73
2019-01-02T03:01:07.296Z,72.94
2019-01-02T03:02:07.267Z,72.73
2019-01-02T03:03:07.249Z,72.83
2019-01-02T03:04:07.236Z,72.73
2019-01-02T03:05:07.225Z,72.83
2019-01-02T03:06:07.240Z,72.52
2019-01-02T03:07:07.205Z,72.83
2019-01-02T03:08:07.195Z,72.52
2019-01-02T03:09:07.186Z,72.31
2019-01-02T03:10:07.214Z,72.21
2019-01-02T03:11:07.163Z,72.31
2019-01-02T03:12:07.152Z,72.63
2019-01-02T03:13:07.139Z,72.63
2019-01-02T03:14:07.130Z,72.31
2019-01-02T03:15:07.120Z,71.69
2019-01-02T03:16:07.133Z,71.69
2019-01-02T03:17:07.098Z,71.69
2019-01-02T03:18:07.089Z,71.59
2019-01-02T03:19:07.075Z,71.69
2019-01-02T03:20:07.104Z,71.80
2019-01-02T03:21:07.065Z,71.48
2019-01-02T03:22:07.048Z,71.80
2019-01-02T03:23:07.034Z,70.97
2019-01-02T03:24:07.023Z,70.97
2019-01-02T03:25:07.015Z,71.38
2019-01-02T03:26:07.028Z,70.93
2019-01-02T03:27:07.007Z,70.86
2019-01-02T03:28:06.981Z,70.86
2019-01-02T03:29:06.974Z,70.86
2019-01-02T03:30:06.964Z,71.17
2019-01-02T03:31:06.982Z,70.86
2019-01-02T03:32:06.939Z,71.38
2019-01-02T03:33:06.931Z,71.07
2019-01-02T03:34:06.916Z,70.54
2019-01-02T03:35:06.904Z,70.34
2019-01-02T03:36:06.921Z,70.23
2019-01-02T03:37:06.886Z,69.92
2019-01-02T03:38:06.874Z,69.68
2019-01-02T03:39:06.861Z,69.79
2019-01-02T03:40:06.888Z,70.13
2019-01-02T03:41:06.839Z,69.58
2019-01-02T03:42:06.831Z,69.27
2019-01-02T03:43:06.820Z,69.68
2019-01-02T03:44:06.815Z,69.48
2019-01-02T03:45:06.800Z,69.79
2019-01-02T03:46:06.814Z,69.48
2019-01-02T03:47:06.775Z,70.20
2019-01-02T03:48:06.770Z,69.68
2019-01-02T03:49:06.755Z,70.31
2019-01-02T03:50:06.745Z,70.83
2019-01-02T03:51:06.761Z,71.14
2019-01-02T03:52:06.725Z,72.80
2019-01-02T03:53:06.711Z,73.53
2019-01-02T03:54:06.704Z,74.70
2019-01-02T03:55:06.692Z,75.12
2019-01-02T03:56:06.705Z,75.43
2019-01-02T03:57:06.670Z,76.26
2019-01-02T03:58:06.672Z,76.72
2019-01-02T03:59:06.650Z,76.16
2019-01-02T04:00:06.663Z,76.40
2019-01-02T04:01:06.628Z,75.88
2019-01-02T04:02:06.617Z,75.26
2019-01-02T04:03:06.608Z,75.57
2019-01-02T04:04:06.595Z,75.67
2019-01-02T04:05:06.624Z,75.78
2019-01-02T04:06:06.576Z,76.23
2019-01-02T04:07:06.564Z,76.12
2019-01-02T04:08:06.552Z,76.43
2019-01-02T04:09:06.546Z,76.85
2019-01-02T04:10:06.535Z,77.06
2019-01-02T04:11:06.546Z,77.79
2019-01-02T04:12:06.512Z,77.48
2019-01-02T04:13:06.499Z,77.79
2019-01-02T04:14:06.489Z,78.31
2019-01-02T04:15:06.488Z,78.55
2019-01-02T04:16:06.491Z,78.31
2019-01-02T04:17:06.461Z,78.24
2019-01-02T04:18:06.445Z,78.31
2019-01-02T04:19:06.436Z,78.41
2019-01-02T04:20:06.425Z,78.14
2019-01-02T04:21:06.488Z,76.99
2019-01-02T04:22:06.403Z,76.16
2019-01-02T04:23:06.394Z,76.37
2019-01-02T04:24:06.388Z,76.43
2019-01-02T04:25:06.398Z,76.37
2019-01-02T04:26:06.361Z,76.47
2019-01-02T04:27:06.350Z,76.47
2019-01-02T04:28:06.340Z,75.29
2019-01-02T04:29:06.328Z,74.91
2019-01-02T04:30:06.360Z,75.32
2019-01-02T04:31:06.310Z,75.01
2019-01-02T04:32:06.300Z,74.46
2019-01-02T04:33:06.288Z,74.77
2019-01-02T04:34:06.274Z,73.87
2019-01-02T04:35:06.267Z,74.15
2019-01-02T04:36:06.280Z,73.46
2019-01-02T04:37:06.244Z,73.42
2019-01-02T04:38:06.233Z,73.21
2019-01-02T04:39:06.222Z,72.80
2019-01-02T04:40:06.253Z,73.00
2019-01-02T04:41:06.202Z,72.49
2019-01-02T04:42:06.191Z,72.38
2019-01-02T04:43:06.178Z,71.44
2019-01-02T04:44:06.170Z,71.03
2019-01-02T04:45:06.162Z,70.92
2019-01-02T04:46:06.171Z,70.92
2019-01-02T04:47:06.138Z,70.51
2019-01-02T04:48:06.125Z,70.61
2019-01-02T04:49:06.115Z,70.37
2019-01-02T04:50:06.142Z,70.37
2019-01-02T04:51:06.096Z,70.09
2019-01-02T04:52:06.084Z,69.26
2019-01-02T04:53:06.075Z,69.02
2019-01-02T04:54:06.066Z,68.91
2019-01-02T04:55:06.053Z,68.19
2019-01-02T04:56:06.068Z,68.19
2019-01-02T04:57:06.031Z,67.88
2019-01-02T04:58:06.022Z,67.46
2019-01-02T04:59:06.009Z,67.74
2019-01-02T05:00:06.002Z,67.74
2019-01-02T05:01:06.017Z,67.54
2019-01-02T05:02:05.987Z,67.54
2019-01-02T05:03:05.969Z,67.43
2019-01-02T05:04:05.955Z,67.33
2019-01-02T05:05:05.973Z,66.18
2019-01-02T05:06:05.933Z,65.87
2019-01-02T05:07:05.925Z,66.50
2019-01-02T05:08:05.914Z,65.77
2019-01-02T05:09:05.902Z,65.87
2019-01-02T05:10:05.932Z,65.56
2019-01-02T05:11:05.880Z,64.94
2019-01-02T05:12:05.872Z,64.31
2019-01-02T05:13:05.860Z,64.21
2019-01-02T05:14:05.848Z,64.00
2019-01-02T05:15:05.840Z,64.62
2019-01-02T05:16:05.859Z,64.42
2019-01-02T05:17:05.819Z,63.90
2019-01-02T05:18:05.808Z,64.00
2019-01-02T05:19:05.796Z,64.21
2019-01-02T05:20:05.808Z,63.87
2019-01-02T05:21:05.775Z,64.00
2019-01-02T05:22:05.763Z,64.11
2019-01-02T05:23:05.753Z,63.90
2019-01-02T05:24:05.741Z,63.90
2019-01-02T05:25:05.758Z,64.62
2019-01-02T05:26:05.722Z,64.31
2019-01-02T05:27:05.711Z,63.90
2019-01-02T05:28:05.701Z,64.52
2019-01-02T05:29:05.689Z,64.42
2019-01-02T05:30:05.712Z,64.62
2019-01-02T05:31:05.669Z,63.90
2019-01-02T05:32:05.656Z,64.52
2019-01-02T05:33:05.645Z,64.62
2019-01-02T05:34:05.634Z,64.42
2019-01-02T05:35:05.625Z,65.56
2019-01-02T05:36:05.641Z,65.56
2019-01-02T05:37:05.602Z,65.66
2019-01-02T05:38:05.593Z,65.66
2019-01-02T05:39:05.585Z,66.28
2019-01-02T05:40:05.571Z,66.08
2019-01-02T05:41:05.587Z,65.77
2019-01-02T05:42:05.550Z,66.18
2019-01-02T05:43:05.539Z,65.56
2019-01-02T05:44:05.529Z,66.81
2019-01-02T05:45:05.517Z,65.97
2019-01-02T05:46:05.533Z,66.18
2019-01-02T05:47:05.498Z,66.08
2019-01-02T05:48:05.486Z,66.08
2019-01-02T05:49:05.475Z,66.71
2019-01-02T05:50:05.491Z,66.71
2019-01-02T05:51:05.452Z,66.08
2019-01-02T05:52:05.455Z,66.39
2019-01-02T05:53:05.433Z,66.50
2019-01-02T05:54:05.422Z,66.91
2019-01-02T05:55:05.411Z,65.80
2019-01-02T05:56:05.423Z,65.97
2019-01-02T05:57:05.392Z,65.45
2019-01-02T05:58:05.380Z,65.66
2019-01-02T05:59:05.368Z,65.56
2019-01-02T06:00:05.382Z,66.28
2019-01-02T06:01:05.347Z,65.56
2019-01-02T06:02:05.339Z,65.04
2019-01-02T06:03:05.325Z,64.21
2019-01-02T06:04:05.314Z,64.18
2019-01-02T06:05:05.329Z,64.00
2019-01-02T06:06:05.293Z,64.31
2019-01-02T06:07:05.283Z,64.62
2019-01-02T06:08:05.271Z,64.62
2019-01-02T06:09:05.260Z,64.73
2019-01-02T06:10:05.271Z,65.04
2019-01-02T06:11:05.239Z,65.56
2019-01-02T06:12:05.229Z,65.77
2019-01-02T06:13:05.217Z,65.77
2019-01-02T06:14:05.213Z,65.45
2019-01-02T06:15:05.222Z,66.28
2019-01-02T06:16:05.195Z,66.08
2019-01-02T06:17:05.173Z,66.50
2019-01-02T06:18:05.165Z,66.08
2019-01-02T06:19:05.153Z,66.31
2019-01-02T06:20:05.171Z,65.77
2019-01-02T06:21:05.139Z,66.08
2019-01-02T06:22:05.120Z,66.81
2019-01-02T06:23:05.110Z,65.45
2019-01-02T06:24:05.098Z,66.53
2019-01-02T06:25:05.127Z,66.50
2019-01-02T06:26:05.079Z,65.77
2019-01-02T06:27:05.070Z,65.77
2019-01-02T06:28:05.058Z,66.31
2019-01-02T06:29:05.047Z,66.11
2019-01-02T06:30:05.043Z,66.00
2019-01-02T06:31:05.052Z,65.80
2019-01-02T06:32:05.014Z,65.80
2019-01-02T06:33:05.007Z,65.80
2019-01-02T06:34:04.994Z,65.87
2019-01-02T06:35:04.985Z,66.00
2019-01-02T06:36:04.998Z,66.00
2019-01-02T06:37:04.960Z,65.48
2019-01-02T06:38:04.953Z,65.45
2019-01-02T06:39:04.946Z,65.48
2019-01-02T06:40:04.959Z,65.14
2019-01-02T06:41:04.920Z,65.04
2019-01-02T06:42:04.909Z,64.42
2019-01-02T06:43:04.900Z,64.83
2019-01-02T06:44:04.889Z,64.62
2019-01-02T06:45:04.913Z,64.83
2019-01-02T06:46:04.880Z,64.11
2019-01-02T06:47:04.854Z,64.00
2019-01-02T06:48:04.844Z,64.21
2019-01-02T06:49:04.834Z,64.31
2019-01-02T06:50:04.822Z,64.21
2019-01-02T06:51:04.839Z,64.42
2019-01-02T06:52:04.803Z,63.90
2019-01-02T06:53:04.792Z,64.21
2019-01-02T06:54:04.779Z,62.86
2019-01-02T06:55:04.775Z,62.45
2019-01-02T06:56:04.786Z,62.13
2019-01-02T06:57:04.749Z,62.34
2019-01-02T06:58:04.738Z,62.21
2019-01-02T06:59:04.727Z,61.48
2019-01-02T07:00:04.755Z,62.00
2019-01-02T07:01:04.704Z,61.58
2019-01-02T07:02:04.696Z,61.48
2019-01-02T07:03:04.684Z,61.38
2019-01-02T07:04:04.672Z,60.55
2019-01-02T07:05:04.669Z,60.44
2019-01-02T07:06:04.680Z,60.34
2019-01-02T07:07:04.640Z,60.10
2019-01-02T07:08:04.635Z,59.19
2019-01-02T07:09:04.622Z,59.19
2019-01-02T07:10:04.648Z,59.50
2019-01-02T07:11:04.596Z,59.71
2019-01-02T07:12:04.594Z,59.69
2019-01-02T07:13:04.578Z,59.58
2019-01-02T07:14:04.568Z,59.09
2019-01-02T07:15:04.556Z,58.96
2019-01-02T07:16:04.574Z,58.34
2019-01-02T07:17:04.534Z,58.65
2019-01-02T07:18:04.523Z,57.82
2019-01-02T07:19:04.512Z,57.30
2019-01-02T07:20:04.505Z,58.42
2019-01-02T07:21:04.517Z,57.82
2019-01-02T07:22:04.483Z,57.51
2019-01-02T07:23:04.470Z,57.92
2019-01-02T07:24:04.459Z,56.88
2019-01-02T07:25:04.452Z,57.07
2019-01-02T07:26:04.462Z,57.07
2019-01-02T07:27:04.426Z,57.71
2019-01-02T07:28:04.415Z,57.69
2019-01-02T07:29:04.403Z,58.52
2019-01-02T07:30:04.394Z,58.31
2019-01-02T07:31:04.407Z,58.86
2019-01-02T07:32:04.373Z,58.23
2019-01-02T07:33:04.416Z,58.65
2019-01-02T07:34:04.352Z,58.34
2019-01-02T07:35:04.340Z,59.06
2019-01-02T07:36:04.361Z,59.48
2019-01-02T07:37:04.326Z,59.17
2019-01-02T07:38:04.308Z,59.06
2019-01-02T07:39:04.299Z,59.06
2019-01-02T07:40:04.289Z,59.06
2019-01-02T07:41:04.300Z,59.27
2019-01-02T07:42:04.267Z,59.27
2019-01-02T07:43:04.261Z,59.17
2019-01-02T07:44:04.246Z,59.17
2019-01-02T07:45:04.257Z,60.39
2019-01-02T07:46:04.251Z,59.06
2019-01-02T07:47:04.212Z,58.65
2019-01-02T07:48:04.214Z,58.75
2019-01-02T07:49:04.194Z,58.94
2019-01-02T07:50:04.210Z,58.42
2019-01-02T07:51:04.172Z,58.13
2019-01-02T07:52:04.160Z,57.92
2019-01-02T07:53:04.150Z,58.54
2019-01-02T07:54:04.140Z,58.54
2019-01-02T07:55:04.153Z,57.82
2019-01-02T07:56:04.118Z,57.90
2019-01-02T07:57:04.110Z,58.03
2019-01-02T07:58:04.097Z,57.90
2019-01-02T07:59:04.092Z,57.92
2019-01-02T08:00:04.103Z,58.11
2019-01-02T08:01:04.066Z,57.82
2019-01-02T08:02:04.054Z,57.20
2019-01-02T08:03:04.045Z,58.42
2019-01-02T08:04:04.040Z,58.65
2019-01-02T08:05:04.049Z,58.42
2019-01-02T08:06:04.012Z,58.75
2019-01-02T08:07:04.003Z,59.35
2019-01-02T08:08:03.991Z,59.06
2019-01-02T08:09:03.983Z,60.83
2019-01-02T08:10:04.007Z,60.21
2019-01-02T08:11:03.965Z,60.41
2019-01-02T08:12:04.033Z,60.96
2019-01-02T08:13:03.942Z,61.45
2019-01-02T08:14:03.927Z,61.66
2019-01-02T08:15:03.918Z,61.66
2019-01-02T08:16:03.931Z,61.97
2019-01-02T08:17:03.902Z,61.87
2019-01-02T08:18:03.891Z,61.76
2019-01-02T08:19:03.880Z,61.87
2019-01-02T08:20:04.166Z,61.87
2019-01-02T08:21:03.894Z,62.41
2019-01-02T08:22:03.844Z,63.01
2019-01-02T08:23:03.831Z,63.87
2019-01-02T08:24:03.820Z,63.56
2019-01-02T08:25:03.815Z,64.07
2019-01-02T08:26:03.828Z,64.18
2019-01-02T08:27:03.795Z,64.18
2019-01-02T08:28:03.776Z,64.07
2019-01-02T08:29:03.806Z,63.35
2019-01-02T08:30:03.763Z,64.00
2019-01-02T08:31:03.810Z,63.66
2019-01-02T08:32:03.737Z,64.39
2019-01-02T08:33:03.723Z,64.28
2019-01-02T08:34:03.717Z,63.97
2019-01-02T08:35:03.707Z,64.07
2019-01-02T08:36:03.719Z,63.87
2019-01-02T08:37:03.685Z,63.87
2019-01-02T08:38:03.671Z,64.49
2019-01-02T08:39:03.661Z,63.97
2019-01-02T08:40:03.677Z,63.76
2019-01-02T08:41:03.641Z,64.07
2019-01-02T08:42:03.632Z,64.28
2019-01-02T08:43:03.619Z,64.28
2019-01-02T08:44:03.609Z,63.79
2019-01-02T08:45:03.607Z,63.87
2019-01-02T08:46:03.616Z,64.07
2019-01-02T08:47:03.581Z,64.18
2019-01-02T08:48:03.570Z,64.07
2019-01-02T08:49:03.558Z,63.56
2019-01-02T08:50:03.552Z,63.66
2019-01-02T08:51:03.561Z,63.21
2019-01-02T08:52:03.526Z,63.35
2019-01-02T08:53:03.514Z,62.07
2019-01-02T08:54:03.507Z,62.41
2019-01-02T08:55:03.522Z,62.21
2019-01-02T08:56:03.480Z,62.41
2019-01-02T08:57:03.473Z,61.69
2019-01-02T08:58:03.462Z,61.38
2019-01-02T08:59:03.453Z,61.76
2019-01-02T09:00:03.485Z,61.90
2019-01-02T09:01:03.469Z,62.73
2019-01-02T09:02:03.420Z,61.79
2019-01-02T09:03:03.412Z,61.90
2019-01-02T09:04:03.403Z,61.90
2019-01-02T09:05:03.400Z,61.76
2019-01-02T09:06:03.403Z,61.14
2019-01-02T09:07:10.397Z,60.93
2019-01-02T09:08:03.402Z,61.07
2019-01-02T09:09:03.352Z,61.17
2019-01-02T09:10:03.337Z,61.24
2019-01-02T09:11:03.352Z,61.35
2019-01-02T09:12:03.319Z,61.04
2019-01-02T09:13:03.304Z,61.24
2019-01-02T09:14:03.296Z,61.24
2019-01-02T09:15:03.282Z,61.35
2019-01-02T09:16:03.299Z,64.98
2019-01-02T09:17:03.271Z,69.96
2019-01-02T09:18:03.253Z,71.97
2019-01-02T09:19:03.239Z,74.26
2019-01-02T09:20:03.236Z,76.26
2019-01-02T09:21:03.247Z,77.92
2019-01-02T09:22:03.212Z,78.79
2019-01-02T09:23:03.203Z,79.87
2019-01-02T09:24:03.190Z,80.70
2019-01-02T09:25:03.177Z,81.32
2019-01-02T09:26:03.197Z,81.88
2019-01-02T09:27:03.154Z,83.34
2019-01-02T09:28:03.148Z,83.69
2019-01-02T09:29:03.137Z,84.00
2019-01-02T09:30:03.126Z,84.11
2019-01-02T09:31:03.137Z,84.63
2019-01-02T09:32:03.101Z,85.14
2019-01-02T09:33:03.093Z,84.52
2019-01-02T09:34:03.082Z,84.94
2019-01-02T09:35:03.109Z,85.35
2019-01-02T09:36:03.066Z,85.25
2019-01-02T09:37:03.063Z,85.25
2019-01-02T09:38:03.041Z,84.73
2019-01-02T09:39:03.029Z,84.63
2019-01-02T09:40:03.020Z,84.11
2019-01-02T09:41:03.036Z,83.48
2019-01-02T09:42:02.999Z,83.48
2019-01-02T09:43:02.994Z,83.27
2019-01-02T09:44:02.976Z,83.48
2019-01-02T09:45:02.964Z,83.27
2019-01-02T09:46:02.980Z,83.17
2019-01-02T09:47:02.941Z,83.27
2019-01-02T09:48:02.987Z,83.48
2019-01-02T09:49:02.925Z,82.96
2019-01-02T09:50:02.959Z,82.34
2019-01-02T09:51:02.926Z,82.65
2019-01-02T09:52:02.890Z,83.06
2019-01-02T09:53:02.879Z,83.27
2019-01-02T09:54:02.867Z,83.06
2019-01-02T09:55:02.918Z,83.27
2019-01-02T09:56:02.875Z,82.86
2019-01-02T09:57:02.878Z,82.23
2019-01-02T09:58:02.824Z,81.57
2019-01-02T09:59:02.814Z,81.77
2019-01-02T10:00:02.811Z,81.98
2019-01-02T10:01:02.817Z,81.77
2019-01-02T10:02:02.804Z,82.20
2019-01-02T10:03:02.819Z,81.77
2019-01-02T10:04:02.761Z,81.15
2019-01-02T10:05:02.751Z,81.05
2019-01-02T10:06:02.767Z,81.05
2019-01-02T10:07:02.753Z,81.15
2019-01-02T10:08:02.789Z,80.22
2019-01-02T10:09:02.708Z,80.32
2019-01-02T10:10:02.705Z,80.63
2019-01-02T10:11:02.793Z,80.43
2019-01-02T10:12:02.690Z,80.39
2019-01-02T10:13:02.688Z,80.32
2019-01-02T10:14:02.655Z,80.29
2019-01-02T10:15:02.647Z,80.29
2019-01-02T10:16:02.741Z,80.60
2019-01-02T10:17:02.646Z,79.97
2019-01-02T10:18:02.635Z,79.35
2019-01-02T10:19:02.607Z,79.55
2019-01-02T10:20:02.593Z,79.35
2019-01-02T10:21:02.632Z,79.45
2019-01-02T10:22:02.588Z,79.45
2019-01-02T10:23:02.586Z,79.52
2019-01-02T10:24:02.557Z,78.93
2019-01-02T10:25:02.549Z,78.31
2019-01-02T10:26:02.619Z,78.38
2019-01-02T10:27:02.514Z,78.27
2019-01-02T10:28:02.541Z,77.86
2019-01-02T10:29:02.564Z,77.03
2019-01-02T10:30:02.511Z,76.51
2019-01-02T10:31:02.586Z,76.51
2019-01-02T10:32:02.462Z,76.19
2019-01-02T10:33:02.528Z,76.19
2019-01-02T10:34:02.440Z,76.51
2019-01-02T10:35:02.432Z,76.19
2019-01-02T10:36:02.528Z,76.82
2019-01-02T10:37:02.414Z,75.64
2019-01-02T10:38:02.399Z,76.37
2019-01-02T10:39:02.472Z,74.91
2019-01-02T10:40:02.611Z,74.80
2019-01-02T10:41:02.394Z,75.22
2019-01-02T10:42:02.377Z,74.49
2019-01-02T10:43:02.416Z,73.43
2019-01-02T10:44:02.338Z,73.32
2019-01-02T10:45:02.332Z,72.80
2019-01-02T10:46:02.373Z,73.22
2019-01-02T10:47:02.302Z,72.80
2019-01-02T10:48:02.335Z,73.43
2019-01-02T10:49:02.455Z,72.69
2019-01-02T10:50:02.285Z,72.69
2019-01-02T10:51:02.287Z,72.90
2019-01-02T10:52:02.321Z,71.55
2019-01-02T10:53:02.238Z,71.03
2019-01-02T10:54:02.246Z,71.14
2019-01-02T10:55:02.216Z,70.83
2019-01-02T10:56:02.277Z,71.11
2019-01-02T10:57:02.209Z,70.51
2019-01-02T10:58:02.184Z,69.03
2019-01-02T10:59:02.177Z,68.93
2019-01-02T11:00:02.214Z,68.62
2019-01-02T11:01:02.205Z,67.65
2019-01-02T11:02:02.229Z,67.44
2019-01-02T11:03:02.188Z,67.72
2019-01-02T11:04:02.128Z,67.96
2019-01-02T11:05:02.139Z,67.58
2019-01-02T11:06:02.141Z,67.65
2019-01-02T11:07:02.113Z,67.76
2019-01-02T11:08:02.100Z,67.68
2019-01-02T11:09:02.112Z,67.13
2019-01-02T11:10:02.107Z,68.17
2019-01-02T11:11:02.086Z,67.16
2019-01-02T11:12:02.039Z,63.94
2019-01-02T11:13:02.026Z,63.71
2019-01-02T11:14:02.093Z,64.95
2019-01-02T11:15:02.019Z,64.02
2019-01-02T11:16:02.038Z,64.04
2019-01-02T11:17:02.010Z,64.02
2019-01-02T11:18:01.988Z,61.66
2019-01-02T11:19:01.981Z,61.66
2019-01-02T11:20:01.952Z,62.59
2019-01-02T11:21:02.023Z,61.87
2019-01-02T11:22:02.000Z,61.87
2019-01-02T11:23:01.933Z,61.35
2019-01-02T11:24:01.910Z,60.10
2019-01-02T11:25:01.922Z,60.72
2019-01-02T11:26:01.926Z,61.87
2019-01-02T11:27:01.877Z,61.35
2019-01-02T11:28:01.868Z,59.38
2019-01-02T11:29:01.928Z,58.75
2019-01-02T11:30:01.920Z,58.34
2019-01-02T11:31:01.888Z,55.74
2019-01-02T11:32:01.825Z,55.15
2019-01-02T11:33:01.825Z,55.04
2019-01-02T11:34:01.819Z,54.50
2019-01-02T11:35:01.813Z,53.67
2019-01-02T11:36:01.902Z,50.96
2019-01-02T11:37:01.788Z,50.86
2019-01-02T11:38:01.838Z,50.55
2019-01-02T11:39:01.786Z,50.26
2019-01-02T11:40:01.763Z,51.17
2019-01-02T11:41:01.843Z,49.82
2019-01-02T11:42:01.717Z,49.72
2019-01-02T11:43:01.745Z,51.09
2019-01-02T11:44:01.703Z,51.17
2019-01-02T11:45:01.712Z,50.96
2019-01-02T11:46:01.700Z,50.32
2019-01-02T11:47:01.685Z,50.17
2019-01-02T11:48:01.781Z,48.34
2019-01-02T11:49:01.643Z,47.27
2019-01-02T11:50:01.648Z,44.74
2019-01-02T11:51:01.652Z,44.32
2019-01-02T11:52:01.628Z,43.91
2019-01-02T11:53:01.611Z,44.24
2019-01-02T11:54:01.588Z,44.57
2019-01-02T11:55:01.628Z,45.30
2019-01-02T11:56:01.590Z,45.01
2019-01-02T11:57:01.556Z,45.30
2019-01-02T11:58:01.546Z,45.94
2019-01-02T11:59:01.535Z,44.37
2019-01-02T12:00:01.524Z,43.91
2019-01-02T12:01:01.540Z,43.62
2019-01-02T12:02:01.608Z,43.81
2019-01-02T12:03:01.493Z,42.07
2019-01-02T12:04:01.478Z,41.91
2019-01-02T12:05:01.473Z,42.25
2019-01-02T12:06:01.483Z,42.24
2019-01-02T12:07:01.446Z,41.70
2019-01-02T12:08:01.438Z,41.82
2019-01-02T12:09:01.428Z,42.13
2019-01-02T12:10:01.414Z,41.30
2019-01-02T12:11:01.430Z,41.70
2019-01-02T12:12:01.392Z,41.61
2019-01-02T12:13:01.382Z,41.30
2019-01-02T12:14:01.369Z,41.60
2019-01-02T12:15:01.368Z,41.06
2019-01-02T12:16:01.374Z,40.00
2019-01-02T12:17:01.339Z,40.21
2019-01-02T12:18:01.332Z,40.83
2019-01-02T12:19:01.315Z,40.71
2019-01-02T12:20:01.315Z,40.19
2019-01-02T12:21:01.320Z,38.42
2019-01-02T12:22:01.284Z,39.84
2019-01-02T12:23:01.276Z,39.72
2019-01-02T12:24:01.263Z,38.79
2019-01-02T12:25:01.254Z,38.37
2019-01-02T12:26:01.268Z,38.67
2019-01-02T12:27:01.249Z,38.24
2019-01-02T12:28:01.218Z,38.24
2019-01-02T12:29:01.212Z,37.21
2019-01-02T12:30:01.199Z,36.99
2019-01-02T12:31:01.214Z,36.79
2019-01-02T12:32:01.181Z,36.29
2019-01-02T12:33:01.170Z,36.71
2019-01-02T12:34:01.165Z,37.42
2019-01-02T12:35:01.150Z,37.52
2019-01-02T12:36:01.158Z,35.78
2019-01-02T12:37:01.124Z,38.06
2019-01-02T12:38:01.112Z,35.99
2019-01-02T12:39:01.104Z,36.41
2019-01-02T12:40:01.092Z,35.89
2019-01-02T12:41:01.108Z,36.11
2019-01-02T12:42:01.071Z,36.96
2019-01-02T12:43:01.058Z,37.28
2019-01-02T12:44:01.053Z,37.44
2019-01-02T12:45:01.074Z,37.87
2019-01-02T12:46:01.028Z,38.30
2019-01-02T12:47:01.017Z,38.82
2019-01-02T12:48:01.006Z,39.34
2019-01-02T12:49:00.995Z,39.95
2019-01-02T12:50:00.984Z,38.70
2019-01-02T12:51:00.997Z,39.94
2019-01-02T12:52:00.964Z,39.83